createdAt,value
2022-07-29T00:01:00.721Z,0
2022-07-29T00:02:02.786Z,0
2022-07-29T00:03:04.859Z,0
2022-07-29T00:04:06.764Z,0
2022-07-29T00:05:08.741Z,0
2022-07-29T00:06:10.733Z,0.26
2022-07-29T00:07:12.986Z,0.16
2022-07-29T00:08:14.756Z,0.2
2022-07-29T00:09:16.735Z,0
2022-07-29T00:10:19.820Z,0.21
2022-07-29T00:11:21.730Z,0.1
2022-07-29T00:12:25.874Z,0.12
2022-07-29T00:13:31.918Z,0
2022-07-29T00:14:27.975Z,0
2022-07-29T00:15:29.731Z,0
2022-07-29T00:16:31.791Z,0
2022-07-29T00:17:33.742Z,0
2022-07-29T00:18:35.763Z,0.21
2022-07-29T00:19:37.769Z,0.22
2022-07-29T00:20:39.778Z,0.17
2022-07-29T00:21:41.767Z,0.26
2022-07-29T00:22:43.761Z,0
2022-07-29T00:23:45.754Z,0
2022-07-29T00:24:47.821Z,0
2022-07-29T00:25:49.760Z,0
2022-07-29T00:26:51.757Z,0
2022-07-29T00:27:53.746Z,0
2022-07-29T00:29:06.473Z,0.15
2022-07-29T00:29:57.791Z,0.27
2022-07-29T00:30:59.774Z,0.13
2022-07-29T00:32:01.884Z,0.13
2022-07-29T00:33:06.922Z,0
2022-07-29T00:34:05.781Z,0
2022-07-29T00:35:07.746Z,0
2022-07-29T00:36:09.831Z,0.17
2022-07-29T00:37:11.762Z,0
2022-07-29T00:38:13.768Z,0
2022-07-29T00:39:15.771Z,0
2022-07-29T00:40:17.801Z,0
2022-07-29T00:41:19.830Z,0
2022-07-29T00:42:21.797Z,0
2022-07-29T00:43:23.783Z,0.34
2022-07-29T00:44:25.795Z,0.15
2022-07-29T00:45:27.791Z,0
2022-07-29T00:46:29.874Z,0
2022-07-29T00:47:31.789Z,0
2022-07-29T00:48:33.844Z,0
2022-07-29T00:49:35.778Z,0
2022-07-29T00:50:37.796Z,0.14
2022-07-29T00:51:39.778Z,0
2022-07-29T00:52:41.795Z,0.25
2022-07-29T00:53:43.856Z,0.39
2022-07-29T00:54:45.857Z,0
2022-07-29T00:55:47.801Z,0
2022-07-29T00:56:50.043Z,0.16
2022-07-29T00:57:51.821Z,0
2022-07-29T00:58:53.920Z,0.17
2022-07-29T00:59:55.809Z,0
2022-07-29T01:00:57.867Z,0
2022-07-29T01:01:59.836Z,0.13
2022-07-29T01:03:01.925Z,0
2022-07-29T01:04:03.859Z,0.12
2022-07-29T01:05:05.816Z,0.19
2022-07-29T01:06:07.826Z,0.1
2022-07-29T01:07:09.823Z,0.26
2022-07-29T01:08:11.856Z,0
2022-07-29T01:09:13.836Z,0
2022-07-29T01:10:15.834Z,0
2022-07-29T01:11:18.023Z,0.22
2022-07-29T01:12:20.494Z,0.15
2022-07-29T01:13:21.836Z,0
2022-07-29T01:14:23.832Z,0
2022-07-29T01:15:25.846Z,0
2022-07-29T01:16:28.477Z,0
2022-07-29T01:17:29.841Z,0
2022-07-29T01:18:31.892Z,0.18
2022-07-29T01:19:33.838Z,0
2022-07-29T01:20:35.868Z,0
2022-07-29T01:21:37.863Z,0
2022-07-29T01:22:39.847Z,0
2022-07-29T01:23:41.876Z,0
2022-07-29T01:24:43.864Z,0
2022-07-29T01:25:45.868Z,0
2022-07-29T01:26:47.910Z,0
2022-07-29T01:27:49.853Z,0
2022-07-29T01:28:51.863Z,0
2022-07-29T01:29:53.898Z,0.38
2022-07-29T01:30:55.919Z,0.18
2022-07-29T01:31:58.924Z,0.11
2022-07-29T01:32:59.900Z,0.16
2022-07-29T01:34:01.932Z,0.08
2022-07-29T01:35:03.880Z,0
2022-07-29T01:36:05.916Z,0
2022-07-29T01:37:07.861Z,0.17
2022-07-29T01:38:09.884Z,0.15
2022-07-29T01:39:11.867Z,0.2
2022-07-29T01:40:13.995Z,0.04
2022-07-29T01:41:15.880Z,0.27
2022-07-29T01:42:17.879Z,0.31
2022-07-29T01:43:19.903Z,0.29
2022-07-29T01:44:21.873Z,0
2022-07-29T01:45:23.909Z,0.09
2022-07-29T01:46:25.964Z,0.4
2022-07-29T01:47:27.884Z,0.25
2022-07-29T01:48:29.940Z,0
2022-07-29T01:49:31.884Z,0.21
2022-07-29T01:50:33.886Z,0.23
2022-07-29T01:51:35.886Z,0.29
2022-07-29T01:52:37.899Z,0.53
2022-07-29T01:53:39.919Z,0.34
2022-07-29T01:54:41.913Z,0.22
2022-07-29T01:55:43.905Z,0.16
2022-07-29T01:56:45.885Z,0
2022-07-29T01:57:47.902Z,0.34
2022-07-29T01:58:49.918Z,0.23
2022-07-29T01:59:51.929Z,0.08
2022-07-29T02:00:53.936Z,0.18
2022-07-29T02:01:56.016Z,0
2022-07-29T02:02:57.903Z,0.58
2022-07-29T02:03:59.970Z,0.22
2022-07-29T02:05:02.102Z,0.13
2022-07-29T02:06:03.908Z,0
2022-07-29T02:07:05.911Z,0
2022-07-29T02:08:07.918Z,0
2022-07-29T02:09:09.948Z,0
2022-07-29T02:10:11.927Z,0
2022-07-29T02:11:13.949Z,0
2022-07-29T02:12:15.925Z,0
2022-07-29T02:13:17.916Z,0
2022-07-29T02:14:19.982Z,0
2022-07-29T02:15:21.932Z,0.19
2022-07-29T02:16:23.979Z,0.1
2022-07-29T02:17:25.933Z,0
2022-07-29T02:18:27.919Z,0.14
2022-07-29T02:19:30.076Z,0.2
2022-07-29T02:20:31.954Z,0
2022-07-29T02:21:33.964Z,0.21
2022-07-29T02:22:35.947Z,0.26
2022-07-29T02:23:45.315Z,0.16
2022-07-29T02:24:39.963Z,0
2022-07-29T02:25:42.017Z,0
2022-07-29T02:26:43.945Z,0
2022-07-29T02:27:48.512Z,0
2022-07-29T02:28:49.968Z,0.14
2022-07-29T02:29:52.003Z,0.24
2022-07-29T02:30:54.075Z,0
2022-07-29T02:31:55.974Z,0.48
2022-07-29T02:32:57.961Z,0.31
2022-07-29T02:34:01.051Z,0.21
2022-07-29T02:35:03.508Z,0.05
2022-07-29T02:36:05.052Z,0.05
2022-07-29T02:37:06.943Z,0.35
2022-07-29T02:38:08.984Z,0.11
2022-07-29T02:39:10.974Z,0
2022-07-29T02:40:12.985Z,0
2022-07-29T02:41:14.983Z,0.11
2022-07-29T02:42:16.978Z,0.25
2022-07-29T02:43:18.974Z,0
2022-07-29T02:44:21.158Z,0
2022-07-29T02:45:22.970Z,0
2022-07-29T02:46:28.709Z,0
2022-07-29T02:47:26.995Z,0
2022-07-29T02:48:29.009Z,0
2022-07-29T02:49:31.106Z,0
2022-07-29T02:50:32.973Z,0
2022-07-29T02:51:41.240Z,0.22
2022-07-29T02:52:36.990Z,0.15
2022-07-29T02:53:39.021Z,0.06
2022-07-29T02:54:41.025Z,0.11
2022-07-29T02:55:42.992Z,0.14
2022-07-29T02:56:45.002Z,0
2022-07-29T02:57:54.269Z,0.29
2022-07-29T02:58:49.022Z,0.31
2022-07-29T02:59:51.019Z,0.23
2022-07-29T03:00:53.025Z,0.06
2022-07-29T03:01:55.047Z,0.34
2022-07-29T03:02:56.990Z,0.17
2022-07-29T03:03:58.997Z,0.17
2022-07-29T03:05:01.151Z,0.12
2022-07-29T03:06:03.037Z,0
2022-07-29T03:07:05.027Z,0
2022-07-29T03:08:07.027Z,0.07
2022-07-29T03:09:13.175Z,0
2022-07-29T03:10:13.444Z,0
2022-07-29T03:11:13.043Z,0
2022-07-29T03:12:15.017Z,0
2022-07-29T03:13:17.006Z,0
2022-07-29T03:14:19.493Z,0
2022-07-29T03:15:21.072Z,0
2022-07-29T03:16:23.087Z,0
2022-07-29T03:17:25.033Z,0
2022-07-29T03:18:27.025Z,0
2022-07-29T03:19:29.059Z,0
2022-07-29T03:20:31.227Z,0
2022-07-29T03:21:33.113Z,0
2022-07-29T03:22:35.020Z,0
2022-07-29T03:23:37.082Z,0
2022-07-29T03:24:39.041Z,0
2022-07-29T03:25:41.049Z,0
2022-07-29T03:26:43.058Z,0
2022-07-29T03:27:45.048Z,0
2022-07-29T03:28:47.076Z,0
2022-07-29T03:29:49.615Z,0
2022-07-29T03:30:51.094Z,0
2022-07-29T03:31:53.032Z,0
2022-07-29T03:32:55.086Z,0
2022-07-29T03:33:57.058Z,0
2022-07-29T03:34:59.047Z,0
2022-07-29T03:36:01.054Z,0
2022-07-29T03:37:03.045Z,0
2022-07-29T03:38:05.130Z,0
2022-07-29T03:39:07.049Z,0
2022-07-29T03:40:09.072Z,0
2022-07-29T03:41:11.055Z,0
2022-07-29T03:42:13.055Z,0
2022-07-29T03:43:15.098Z,0
2022-07-29T03:44:17.452Z,0
2022-07-29T03:45:19.133Z,0
2022-07-29T03:46:21.308Z,0
2022-07-29T03:47:23.093Z,0
2022-07-29T03:48:25.137Z,0
2022-07-29T03:49:27.111Z,0
2022-07-29T03:50:29.117Z,0
2022-07-29T03:51:31.620Z,0
2022-07-29T03:52:33.137Z,0
2022-07-29T03:53:35.090Z,0
2022-07-29T03:54:37.161Z,0.17
2022-07-29T03:55:39.126Z,0
2022-07-29T03:56:41.083Z,0
2022-07-29T03:57:43.115Z,0
2022-07-29T03:58:45.078Z,0
2022-07-29T03:59:47.116Z,0
2022-07-29T04:00:49.242Z,0
2022-07-29T04:01:51.354Z,0
2022-07-29T04:02:53.180Z,0
2022-07-29T04:03:55.147Z,0
2022-07-29T04:04:57.096Z,0
2022-07-29T04:05:59.099Z,0
2022-07-29T04:07:01.111Z,0.22
2022-07-29T04:08:03.144Z,0.12
2022-07-29T04:09:05.105Z,0.2
2022-07-29T04:10:07.159Z,0.15
2022-07-29T04:11:09.135Z,0
2022-07-29T04:12:12.852Z,0
2022-07-29T04:13:15.110Z,0
2022-07-29T04:14:17.493Z,0
2022-07-29T04:15:19.124Z,0
2022-07-29T04:16:21.254Z,0
2022-07-29T04:17:23.157Z,0
2022-07-29T04:18:25.131Z,0.33
2022-07-29T04:19:27.123Z,0.3
2022-07-29T04:20:29.155Z,0
2022-07-29T04:21:31.144Z,0.12
2022-07-29T04:22:33.158Z,0.62
2022-07-29T04:23:35.123Z,0.15
2022-07-29T04:24:44.287Z,0
2022-07-29T04:25:43.189Z,0
2022-07-29T04:26:45.160Z,0.12
2022-07-29T04:27:47.178Z,0.11
2022-07-29T04:28:49.159Z,0.11
2022-07-29T04:29:57.197Z,0.18
2022-07-29T04:30:53.174Z,0.19
2022-07-29T04:31:55.196Z,0
2022-07-29T04:32:57.143Z,0.18
2022-07-29T04:33:59.151Z,0.3
2022-07-29T04:35:01.151Z,0.35
2022-07-29T04:36:03.194Z,0.34
2022-07-29T04:37:05.174Z,0.36
2022-07-29T04:38:07.169Z,0.09
2022-07-29T04:39:09.153Z,0.28
2022-07-29T04:40:11.192Z,0
2022-07-29T04:41:13.161Z,0.21
2022-07-29T04:42:15.247Z,0.12
2022-07-29T04:43:17.193Z,0.22
2022-07-29T04:44:19.490Z,0.22
2022-07-29T04:45:22.381Z,0.27
2022-07-29T04:46:23.197Z,0.23
2022-07-29T04:47:25.252Z,0.26
2022-07-29T04:48:28.812Z,0.31
2022-07-29T04:49:29.253Z,0.43
2022-07-29T04:50:31.175Z,0.19
2022-07-29T04:51:33.167Z,0.48
2022-07-29T04:52:35.232Z,0.41
2022-07-29T04:53:37.196Z,0.43
2022-07-29T04:54:39.299Z,0.34
2022-07-29T04:55:41.194Z,0.28
2022-07-29T04:56:43.218Z,0.47
2022-07-29T04:57:45.215Z,0.45
2022-07-29T04:58:47.234Z,0.67
2022-07-29T04:59:49.212Z,0.83
2022-07-29T05:00:51.193Z,0.39
2022-07-29T05:01:53.286Z,0.64
2022-07-29T05:02:55.358Z,0.52
2022-07-29T05:04:00.416Z,0.76
2022-07-29T05:04:59.203Z,0.45
2022-07-29T05:06:01.195Z,0.24
2022-07-29T05:07:03.223Z,0.77
2022-07-29T05:08:05.233Z,0.34
2022-07-29T05:09:07.197Z,0.42
2022-07-29T05:10:09.215Z,0.17
2022-07-29T05:11:11.404Z,0.74
2022-07-29T05:12:13.223Z,0.64
2022-07-29T05:13:15.238Z,0.67
2022-07-29T05:14:17.938Z,0.53
2022-07-29T05:15:19.237Z,0.51
2022-07-29T05:16:21.274Z,0.33
2022-07-29T05:17:23.216Z,0.87
2022-07-29T05:18:25.897Z,0.56
2022-07-29T05:19:27.259Z,0.64
2022-07-29T05:20:29.254Z,0.39
2022-07-29T05:21:31.206Z,0.8
2022-07-29T05:22:33.223Z,0.84
2022-07-29T05:23:35.257Z,0.57
2022-07-29T05:24:37.260Z,0.68
2022-07-29T05:25:40.703Z,0.89
2022-07-29T05:26:41.230Z,0.63
2022-07-29T05:27:43.227Z,0.5
2022-07-29T05:28:45.302Z,0.7
2022-07-29T05:29:47.471Z,0.57
2022-07-29T05:30:49.386Z,0.63
2022-07-29T05:31:51.518Z,0.86
2022-07-29T05:32:53.245Z,0.76
2022-07-29T05:33:56.418Z,0.93
2022-07-29T05:34:58.264Z,1.04
2022-07-29T05:36:01.107Z,0.64
2022-07-29T05:37:02.265Z,0.6
2022-07-29T05:38:04.261Z,1.02
2022-07-29T05:39:06.316Z,0.58
2022-07-29T05:40:08.298Z,0.7
2022-07-29T05:41:10.252Z,0.42
2022-07-29T05:42:12.269Z,0.63
2022-07-29T05:43:14.371Z,0.52
2022-07-29T05:44:16.731Z,0.65
2022-07-29T05:45:18.282Z,0.4
2022-07-29T05:46:20.358Z,0.66
2022-07-29T05:47:22.677Z,0.68
2022-07-29T05:48:24.262Z,0.61
2022-07-29T05:49:37.040Z,0.81
2022-07-29T05:50:38.286Z,0.46
2022-07-29T05:51:40.289Z,0.11
2022-07-29T05:52:42.542Z,0.29
2022-07-29T05:53:44.304Z,0.46
2022-07-29T05:54:46.415Z,0.59
2022-07-29T05:55:48.263Z,0.74
2022-07-29T05:56:51.730Z,0.25
2022-07-29T05:57:53.291Z,0.77
2022-07-29T05:58:55.870Z,0.56
2022-07-29T05:59:57.314Z,0.17
2022-07-29T06:01:00.278Z,0.32
2022-07-29T06:02:01.413Z,0.4
2022-07-29T06:03:03.354Z,0.35
2022-07-29T06:04:06.290Z,0.32
2022-07-29T06:05:08.391Z,0.37
2022-07-29T06:06:10.313Z,0.51
2022-07-29T06:07:12.373Z,0.28
2022-07-29T06:08:14.310Z,0.38
2022-07-29T06:09:16.536Z,0.32
2022-07-29T06:10:18.348Z,0.86
2022-07-29T06:11:20.347Z,0.84
2022-07-29T06:12:22.351Z,0.29
2022-07-29T06:13:24.304Z,0.41
2022-07-29T06:14:26.341Z,0.41
2022-07-29T06:15:29.179Z,0.32
2022-07-29T06:16:30.600Z,0.69
2022-07-29T06:17:32.309Z,0.14
2022-07-29T06:18:34.313Z,0
2022-07-29T06:19:37.301Z,0.48
2022-07-29T06:20:38.361Z,0.78
2022-07-29T06:21:42.012Z,1.35
2022-07-29T06:22:42.330Z,0.38
2022-07-29T06:23:44.327Z,0.89
2022-07-29T06:24:46.365Z,0.85
2022-07-29T06:25:49.398Z,1.01
2022-07-29T06:26:51.334Z,1.33
2022-07-29T06:27:53.348Z,1.42
2022-07-29T06:28:55.320Z,1.65
2022-07-29T06:29:57.484Z,1.12
2022-07-29T06:30:59.417Z,1.43
2022-07-29T06:32:01.407Z,1.11
2022-07-29T06:33:03.324Z,1.28
2022-07-29T06:34:05.388Z,1.6
2022-07-29T06:35:33.283Z,1.2
2022-07-29T06:36:10.503Z,1.03
2022-07-29T06:37:15.457Z,1.08
2022-07-29T06:38:30.617Z,1.02
2022-07-29T06:39:16.730Z,1.61
2022-07-29T06:40:18.360Z,1.68
2022-07-29T06:41:20.857Z,1.48
2022-07-29T06:42:22.341Z,0.86
2022-07-29T06:43:24.369Z,1.3
2022-07-29T06:44:26.389Z,0.75
2022-07-29T06:45:29.462Z,1.1
2022-07-29T06:46:31.490Z,1.35
2022-07-29T06:47:33.358Z,0.69
2022-07-29T06:48:35.423Z,0.94
2022-07-29T06:49:37.399Z,0.81
2022-07-29T06:50:39.408Z,0.5
2022-07-29T06:51:41.416Z,1.1
2022-07-29T06:52:43.426Z,1.21
2022-07-29T06:53:58.543Z,1
2022-07-29T06:54:47.393Z,0.4
2022-07-29T06:55:49.365Z,0.74
2022-07-29T06:56:51.458Z,0.58
2022-07-29T06:57:53.375Z,0.49
2022-07-29T06:58:55.409Z,0.45
2022-07-29T06:59:57.386Z,0.35
2022-07-29T07:00:59.462Z,0.82
2022-07-29T07:02:01.461Z,0.68
2022-07-29T07:03:03.388Z,0.95
2022-07-29T07:04:05.424Z,0.82
2022-07-29T07:05:07.432Z,0.98
2022-07-29T07:06:13.234Z,2.02
2022-07-29T07:07:11.424Z,0.96
2022-07-29T07:08:13.393Z,2.35
2022-07-29T07:09:15.428Z,0.81
2022-07-29T07:10:17.444Z,0.61
2022-07-29T07:11:20.142Z,1.69
2022-07-29T07:12:21.418Z,1.44
2022-07-29T07:13:23.398Z,1.63
2022-07-29T07:14:25.427Z,1.82
2022-07-29T07:15:38.471Z,1.57
2022-07-29T07:16:29.458Z,1.77
2022-07-29T07:17:31.408Z,1.13
2022-07-29T07:18:33.459Z,1.04
2022-07-29T07:19:36.459Z,1.27
2022-07-29T07:20:38.478Z,1.78
2022-07-29T07:21:40.462Z,1.62
2022-07-29T07:22:42.457Z,2.15
2022-07-29T07:23:44.456Z,1.46
2022-07-29T07:24:46.439Z,1.56
2022-07-29T07:25:48.490Z,1.22
2022-07-29T07:26:50.432Z,0.9
2022-07-29T07:27:52.438Z,1.22
2022-07-29T07:28:54.455Z,0.88
2022-07-29T07:29:56.624Z,1.3
2022-07-29T07:30:58.494Z,1.52
2022-07-29T07:32:01.016Z,1.85
2022-07-29T07:33:02.474Z,1.17
2022-07-29T07:34:04.475Z,1.31
2022-07-29T07:35:06.504Z,1.87
2022-07-29T07:36:08.476Z,1.59
2022-07-29T07:37:10.450Z,0.54
2022-07-29T07:38:12.479Z,0.93
2022-07-29T07:39:14.471Z,0.97
2022-07-29T07:40:18.711Z,2.4
2022-07-29T07:41:18.513Z,2.59
2022-07-29T07:42:20.539Z,2
2022-07-29T07:43:22.465Z,1.53
2022-07-29T07:44:24.600Z,1.16
2022-07-29T07:45:26.540Z,0.97
2022-07-29T07:46:28.495Z,1.24
2022-07-29T07:47:30.523Z,1.32
2022-07-29T07:48:32.476Z,1.13
2022-07-29T07:49:34.504Z,1.93
2022-07-29T07:50:36.492Z,1.17
2022-07-29T07:51:38.468Z,1.48
2022-07-29T07:52:40.490Z,0.67
2022-07-29T07:53:42.482Z,0.64
2022-07-29T07:54:44.519Z,0.65
2022-07-29T07:56:09.188Z,0.84
2022-07-29T07:56:48.521Z,0.83
2022-07-29T07:57:50.597Z,0.79
2022-07-29T07:58:52.581Z,0.79
2022-07-29T07:59:54.488Z,0.86
2022-07-29T08:00:56.578Z,0.98
2022-07-29T08:01:58.742Z,1.27
2022-07-29T08:03:00.584Z,0.48
2022-07-29T08:04:02.722Z,0.48
2022-07-29T08:05:04.614Z,0.54
2022-07-29T08:06:06.686Z,0.73
2022-07-29T08:07:08.570Z,0.46
2022-07-29T08:08:10.517Z,0.66
2022-07-29T08:09:28.028Z,0.91
2022-07-29T08:10:14.523Z,0.8
2022-07-29T08:11:16.518Z,0.65
2022-07-29T08:12:18.531Z,0.39
2022-07-29T08:13:20.559Z,1
2022-07-29T08:14:22.521Z,0.46
2022-07-29T08:15:24.537Z,0.54
2022-07-29T08:16:26.546Z,0.33
2022-07-29T08:17:28.505Z,0.3
2022-07-29T08:18:30.549Z,0.59
2022-07-29T08:19:32.555Z,1.13
2022-07-29T08:20:34.529Z,0.89
2022-07-29T08:21:36.582Z,1.09
2022-07-29T08:22:38.856Z,0.42
2022-07-29T08:23:45.804Z,1.04
2022-07-29T08:24:42.549Z,0.84
2022-07-29T08:25:44.573Z,0.53
2022-07-29T08:26:46.608Z,0.58
2022-07-29T08:27:48.888Z,0.2
2022-07-29T08:28:50.551Z,0.21
2022-07-29T08:29:52.575Z,0.89
2022-07-29T08:30:54.564Z,1.46
2022-07-29T08:31:56.841Z,1.04
2022-07-29T08:32:58.643Z,0.56
2022-07-29T08:34:00.653Z,0.74
2022-07-29T08:35:03.652Z,0.77
2022-07-29T08:36:05.550Z,0.85
2022-07-29T08:37:07.569Z,0.76
2022-07-29T08:38:09.565Z,0.67
2022-07-29T08:39:11.591Z,0.84
2022-07-29T08:40:13.601Z,0.84
2022-07-29T08:41:15.563Z,0.94
2022-07-29T08:42:17.557Z,1.14
2022-07-29T08:43:19.564Z,0.85
2022-07-29T08:44:22.322Z,0.33
2022-07-29T08:45:23.664Z,0.92
2022-07-29T08:46:25.633Z,0.55
2022-07-29T08:47:27.604Z,1.8
2022-07-29T08:48:29.567Z,1.26
2022-07-29T08:49:31.579Z,0.83
2022-07-29T08:50:33.614Z,1.09
2022-07-29T08:51:35.637Z,1.09
2022-07-29T08:52:37.623Z,1.12
2022-07-29T08:53:39.594Z,1.22
2022-07-29T08:54:41.597Z,0.85
2022-07-29T08:55:43.599Z,0.35
2022-07-29T08:56:45.574Z,0.22
2022-07-29T08:57:51.077Z,0.4
2022-07-29T08:58:50.683Z,1.34
2022-07-29T08:59:52.595Z,0.53
2022-07-29T09:00:55.409Z,0.63
2022-07-29T09:01:56.914Z,0.75
2022-07-29T09:02:58.627Z,0.31
2022-07-29T09:04:00.015Z,0.47
2022-07-29T09:05:00.983Z,0.44
2022-07-29T09:06:03.721Z,0.6
2022-07-29T09:07:05.612Z,0.9
2022-07-29T09:08:07.632Z,0.45
2022-07-29T09:09:09.635Z,0.39
2022-07-29T09:10:11.637Z,0.7
2022-07-29T09:11:13.628Z,0.93
2022-07-29T09:12:28.662Z,0.71
2022-07-29T09:13:17.669Z,0.64
2022-07-29T09:14:19.632Z,0.82
2022-07-29T09:15:21.807Z,0.71
2022-07-29T09:16:44.027Z,0.84
2022-07-29T09:17:25.684Z,1.17
2022-07-29T09:18:31.103Z,1.41
2022-07-29T09:19:29.641Z,1.45
2022-07-29T09:20:31.639Z,1.37
2022-07-29T09:21:33.635Z,1.21
2022-07-29T09:22:38.846Z,1.11
2022-07-29T09:23:37.683Z,2.42
2022-07-29T09:24:39.674Z,1.35
2022-07-29T09:25:41.659Z,1.58
2022-07-29T09:26:43.652Z,1.41
2022-07-29T09:27:45.676Z,1.69
2022-07-29T09:28:47.676Z,1.25
2022-07-29T09:29:49.753Z,0.89
2022-07-29T09:30:51.684Z,1.44
2022-07-29T09:31:53.773Z,1.39
2022-07-29T09:32:55.693Z,1.6
2022-07-29T09:33:57.659Z,1.89
2022-07-29T09:34:59.694Z,1.49
2022-07-29T09:36:01.883Z,0.85
2022-07-29T09:37:03.660Z,0.95
2022-07-29T09:38:05.680Z,0.74
2022-07-29T09:39:08.117Z,0.69
2022-07-29T09:40:11.751Z,0.76
2022-07-29T09:41:11.671Z,1.07
2022-07-29T09:42:13.679Z,1.08
2022-07-29T09:43:15.710Z,1.42
2022-07-29T09:44:17.911Z,0.97
2022-07-29T09:45:19.680Z,1.61
2022-07-29T09:46:21.750Z,1.24
2022-07-29T09:47:23.722Z,1.01
2022-07-29T09:48:25.702Z,1.09
2022-07-29T09:49:27.816Z,1.31
2022-07-29T09:50:29.674Z,2.11
2022-07-29T09:51:37.950Z,1.36
2022-07-29T09:52:33.714Z,0.83
2022-07-29T09:53:35.707Z,0.85
2022-07-29T09:54:37.695Z,2.01
2022-07-29T09:55:39.701Z,1.35
2022-07-29T09:56:41.741Z,1.31
2022-07-29T09:57:43.770Z,1.3
2022-07-29T09:58:45.753Z,1.09
2022-07-29T09:59:50.016Z,1.47
2022-07-29T10:00:49.737Z,0.79
2022-07-29T10:01:51.732Z,1.4
2022-07-29T10:02:53.815Z,1.09
2022-07-29T10:03:55.745Z,0.8
2022-07-29T10:04:57.758Z,0.45
2022-07-29T10:05:59.721Z,0.49
2022-07-29T10:07:04.597Z,0.57
2022-07-29T10:08:03.729Z,0.76
2022-07-29T10:09:05.774Z,1.39
2022-07-29T10:10:07.960Z,1.11
2022-07-29T10:11:09.727Z,1.24
2022-07-29T10:12:11.760Z,1.13
2022-07-29T10:13:15.895Z,0.88
2022-07-29T10:14:15.835Z,0.93
2022-07-29T10:15:17.847Z,0.81
2022-07-29T10:16:19.795Z,0.46
2022-07-29T10:17:21.934Z,0.64
2022-07-29T10:18:23.756Z,0.29
2022-07-29T10:19:25.801Z,0.61
2022-07-29T10:20:29.076Z,0.99
2022-07-29T10:21:35.117Z,0.72
2022-07-29T10:22:52.244Z,0.67
2022-07-29T10:23:46.704Z,0.5
2022-07-29T10:24:36.823Z,0.7
2022-07-29T10:25:38.760Z,0.74
2022-07-29T10:26:40.756Z,0.91
2022-07-29T10:27:42.813Z,1
2022-07-29T10:28:44.759Z,0.64
2022-07-29T10:29:46.812Z,0.74
2022-07-29T10:30:48.812Z,1.51
2022-07-29T10:31:50.887Z,1.36
2022-07-29T10:32:54.302Z,1.76
2022-07-29T10:33:54.760Z,2.6
2022-07-29T10:34:56.800Z,0.75
2022-07-29T10:35:58.790Z,0.46
2022-07-29T10:37:00.798Z,0.64
2022-07-29T10:38:02.938Z,0.8
2022-07-29T10:39:05.285Z,1.09
2022-07-29T10:40:06.830Z,1
2022-07-29T10:41:08.796Z,1.07
2022-07-29T10:42:16.895Z,0.72
2022-07-29T10:43:17.781Z,0.83
2022-07-29T10:44:22.936Z,1.64
2022-07-29T10:45:21.834Z,1.27
2022-07-29T10:46:23.869Z,0.55
2022-07-29T10:47:25.798Z,1.28
2022-07-29T10:48:27.793Z,0.99
2022-07-29T10:49:30.356Z,0.78
2022-07-29T10:50:31.795Z,1.31
2022-07-29T10:51:33.788Z,1.1
2022-07-29T10:52:35.818Z,2.3
2022-07-29T10:53:37.810Z,2.04
2022-07-29T10:54:42.252Z,1.06
2022-07-29T10:55:43.267Z,0.74
2022-07-29T10:56:44.203Z,1.05
2022-07-29T10:57:52.871Z,0.85
2022-07-29T10:58:49.916Z,0.74
2022-07-29T10:59:49.858Z,1.14
2022-07-29T11:00:51.886Z,0.85
2022-07-29T11:01:53.718Z,0.8
2022-07-29T11:02:54.923Z,1.12
2022-07-29T11:03:57.066Z,0.78
2022-07-29T11:04:58.817Z,0.98
2022-07-29T11:06:01.082Z,1.45
2022-07-29T11:07:03.934Z,1.11
2022-07-29T11:08:04.988Z,0.96
2022-07-29T11:09:06.843Z,1.44
2022-07-29T11:10:08.252Z,0.53
2022-07-29T11:11:09.631Z,0.86
2022-07-29T11:12:10.239Z,0.92
2022-07-29T11:13:11.247Z,1.21
2022-07-29T11:14:12.218Z,1.21
2022-07-29T11:15:13.257Z,1.08
2022-07-29T11:16:16.094Z,1.58
2022-07-29T11:17:15.250Z,0.9
2022-07-29T11:18:17.524Z,1.06
2022-07-29T11:19:21.482Z,0.76
2022-07-29T11:20:19.862Z,0.77
2022-07-29T11:21:23.310Z,0.78
2022-07-29T11:22:23.890Z,1
2022-07-29T11:23:25.864Z,1.08
2022-07-29T11:24:28.664Z,1.42
2022-07-29T11:25:42.723Z,1.18
2022-07-29T11:26:31.879Z,1.17
2022-07-29T11:27:33.903Z,1.28
2022-07-29T11:28:35.864Z,1.61
2022-07-29T11:29:39.930Z,1.3
2022-07-29T11:30:39.893Z,0.99
2022-07-29T11:31:41.857Z,0.99
2022-07-29T11:32:44.708Z,0.8
2022-07-29T11:33:54.228Z,1
2022-07-29T11:34:47.881Z,0.94
2022-07-29T11:36:00.672Z,2.26
2022-07-29T11:36:51.883Z,2.67
2022-07-29T11:37:55.401Z,3.05
2022-07-29T11:38:55.892Z,1.27
2022-07-29T11:40:01.599Z,1.39
2022-07-29T11:40:59.886Z,1.18
2022-07-29T11:42:05.046Z,1.26
2022-07-29T11:43:07.316Z,1.08
2022-07-29T11:44:05.894Z,1.68
2022-07-29T11:45:08.916Z,1.12
2022-07-29T11:46:09.938Z,1.05
2022-07-29T11:47:11.894Z,0.98
2022-07-29T11:48:28.125Z,1.74
2022-07-29T11:49:16.043Z,1.93
2022-07-29T11:50:17.965Z,1.02
2022-07-29T11:51:19.959Z,0.77
2022-07-29T11:52:21.954Z,0.89
2022-07-29T11:53:24.039Z,1.06
2022-07-29T11:54:27.399Z,1.14
2022-07-29T11:55:32.407Z,0.89
2022-07-29T11:56:29.915Z,1.21
2022-07-29T11:57:36.748Z,1.32
2022-07-29T11:58:33.925Z,1.08
2022-07-29T11:59:35.946Z,1.19
2022-07-29T12:00:37.964Z,0.98
2022-07-29T12:01:39.927Z,1.22
2022-07-29T12:02:42.231Z,0.91
2022-07-29T12:03:43.987Z,1.19
2022-07-29T12:04:46.104Z,2.76
2022-07-29T12:06:50.014Z,1.35
2022-07-29T12:07:03.134Z,2.93
2022-07-29T12:07:51.948Z,2.79
2022-07-29T12:08:53.960Z,2.38
2022-07-29T12:09:56.870Z,1.74
2022-07-29T12:10:58.120Z,1.65
2022-07-29T12:12:05.049Z,1.06
2022-07-29T12:13:01.965Z,0.94
2022-07-29T12:14:04.016Z,1.3
2022-07-29T12:15:05.991Z,1.55
2022-07-29T12:16:08.026Z,2.16
2022-07-29T12:17:10.015Z,2.2
2022-07-29T12:18:11.989Z,1.96
2022-07-29T12:19:14.022Z,2.11
2022-07-29T12:20:15.986Z,1.63
2022-07-29T12:21:17.973Z,2.52
2022-07-29T12:22:20.015Z,1.8
2022-07-29T12:23:22.179Z,1.75
2022-07-29T12:24:26.652Z,1.92
2022-07-29T12:25:34.090Z,1.82
2022-07-29T12:26:27.968Z,3
2022-07-29T12:27:31.299Z,2.62
2022-07-29T12:28:31.965Z,1.19
2022-07-29T12:29:35.287Z,1.5
2022-07-29T12:30:36.013Z,0.96
2022-07-29T12:31:42.628Z,1.4
2022-07-29T12:32:40.115Z,1.56
2022-07-29T12:33:41.358Z,0.65
2022-07-29T12:34:43.004Z,0.81
2022-07-29T12:35:45.887Z,1.26
2022-07-29T12:36:46.988Z,0.79
2022-07-29T12:37:49.039Z,1.2
2022-07-29T12:38:51.004Z,2.28
2022-07-29T12:39:53.018Z,0.47
2022-07-29T12:40:55.016Z,1.33
2022-07-29T12:42:03.345Z,1.31
2022-07-29T12:42:59.022Z,1.71
2022-07-29T12:44:01.247Z,1.45
2022-07-29T12:45:02.624Z,0.91
2022-07-29T12:46:03.582Z,0.94
2022-07-29T12:47:04.397Z,1.24
2022-07-29T12:48:05.559Z,1.02
2022-07-29T12:49:06.520Z,1
2022-07-29T12:50:08.137Z,1.12
2022-07-29T12:51:10.129Z,1.09
2022-07-29T12:52:12.060Z,1.11
2022-07-29T12:53:14.011Z,1.41
2022-07-29T12:54:16.013Z,1.61
2022-07-29T12:55:18.089Z,0.68
2022-07-29T12:56:41.569Z,0.86
2022-07-29T12:57:22.031Z,0.84
2022-07-29T12:58:24.031Z,0.62
2022-07-29T12:59:26.071Z,1.73
2022-07-29T13:00:28.142Z,1.51
2022-07-29T13:01:30.040Z,1.49
2022-07-29T13:02:31.480Z,0.77
2022-07-29T13:03:35.716Z,0.4
2022-07-29T13:04:33.432Z,0.57
2022-07-29T13:05:34.431Z,1.15
2022-07-29T13:06:35.427Z,1.21
2022-07-29T13:07:54.812Z,1.46
2022-07-29T13:08:39.054Z,1.54
2022-07-29T13:09:41.153Z,1.72
2022-07-29T13:10:43.073Z,1.52
2022-07-29T13:11:48.311Z,2.68
2022-07-29T13:12:47.096Z,2.91
2022-07-29T13:13:49.072Z,1.95
2022-07-29T13:14:51.073Z,2.32
2022-07-29T13:15:53.137Z,2.56
2022-07-29T13:16:55.110Z,2.39
2022-07-29T13:17:57.085Z,2.65
2022-07-29T13:18:59.075Z,2.41
2022-07-29T13:20:00.495Z,2.27
2022-07-29T13:21:01.452Z,2.35
2022-07-29T13:22:02.505Z,1.31
2022-07-29T13:23:03.502Z,0.73
2022-07-29T13:24:05.090Z,1.47
2022-07-29T13:25:16.906Z,1.42
2022-07-29T13:26:27.934Z,1.45
2022-07-29T13:27:29.105Z,1.15
2022-07-29T13:28:31.081Z,1.28
2022-07-29T13:29:33.070Z,2.11
2022-07-29T13:30:35.152Z,2.06
2022-07-29T13:31:37.156Z,1.53
2022-07-29T13:32:39.132Z,0.93
2022-07-29T13:33:41.146Z,1.06
2022-07-29T13:34:43.092Z,1.18
2022-07-29T13:35:45.107Z,1.13
2022-07-29T13:36:47.117Z,2.18
2022-07-29T13:37:49.325Z,2.73
2022-07-29T13:38:51.131Z,1.42
2022-07-29T13:39:53.503Z,1.25
2022-07-29T13:40:55.198Z,1.07
2022-07-29T13:41:57.534Z,1.66
2022-07-29T13:42:59.132Z,1.71
2022-07-29T13:44:01.134Z,1.94
2022-07-29T13:45:03.167Z,1.1
2022-07-29T13:46:05.221Z,0.71
2022-07-29T13:47:07.192Z,1.34
2022-07-29T13:48:10.276Z,1.22
2022-07-29T13:49:12.170Z,1.83
2022-07-29T13:50:14.124Z,1.18
2022-07-29T13:51:16.116Z,0.61
2022-07-29T13:52:18.223Z,0.8
2022-07-29T13:53:20.135Z,0.81
2022-07-29T13:54:22.129Z,1.08
2022-07-29T13:55:24.170Z,1.59
2022-07-29T13:56:26.127Z,1.96
2022-07-29T13:57:28.202Z,2.23
2022-07-29T13:58:30.151Z,2.66
2022-07-29T13:59:32.168Z,1.25
2022-07-29T14:00:34.156Z,0.78
2022-07-29T14:01:36.363Z,1.28
2022-07-29T14:02:38.178Z,1.12
2022-07-29T14:03:40.192Z,1.19
2022-07-29T14:04:42.188Z,1.33
2022-07-29T14:05:44.194Z,0.75